Milford, Kansas
Current Conditions -  °F | °C
As of 8:58 AM on Friday 21 Nov 2014 (Local Time) from KFRI Reporting Station
Clear Clear  
Wind Chill: 22°   Ceiling: Unl
Heat Index: 29°   Visibility: 10mi
Dew Point: 20°   Wind: 7mph
Humidity: 70%   Direction: 70°ENE
Pressure: 30.17"   Gusts: NA
Location:  39.17°N, 96.91°W
Report Text: KFRI 211458Z AUTO 07006KT 10SM CLR M02/M06 A3017 RMK AO2 SLP226 T10171065 56004
Loading
Personal Weather Stations






























Interactive Weather Map New forecast layout! Learn more

10-Day Weather Forecast

Advertisements
Track Severe Weather on mobile